createdAt,value
2023-03-06T00:00:21.266Z,19.70
2023-03-06T00:03:12.399Z,23.80
2023-03-06T00:05:43.669Z,20.00
2023-03-06T00:08:14.476Z,18.20
2023-03-06T00:10:46.104Z,20.30
2023-03-06T00:13:19.254Z,23.50
2023-03-06T00:18:19.719Z,19.50
2023-03-06T00:20:50.301Z,23.10
2023-03-06T00:23:21.432Z,21.10
2023-03-06T00:25:52.078Z,23.90
2023-03-06T00:28:23.789Z,24.60
2023-03-06T00:30:54.768Z,21.60
2023-03-06T00:33:25.980Z,22.00
2023-03-06T00:35:57.754Z,25.90
2023-03-06T00:38:31.876Z,24.80
2023-03-06T00:41:07.484Z,24.90
2023-03-06T00:43:38.356Z,23.10
2023-03-06T00:46:11.574Z,22.30
2023-03-06T00:48:43.165Z,23.30
2023-03-06T00:51:14.139Z,22.70
2023-03-06T00:53:45.292Z,24.30
2023-03-06T00:56:16.713Z,22.00
2023-03-06T00:58:48.706Z,26.70
2023-03-06T01:01:19.494Z,24.20
2023-03-06T01:03:51.012Z,22.80
2023-03-06T01:06:22.124Z,24.70
2023-03-06T01:08:53.470Z,25.70
2023-03-06T01:11:24.206Z,24.70
2023-03-06T01:13:55.604Z,24.50
2023-03-06T01:16:26.413Z,26.10
2023-03-06T01:18:57.788Z,20.60
2023-03-06T01:21:28.980Z,26.60
2023-03-06T01:24:00.132Z,24.30
2023-03-06T01:26:30.753Z,23.50
2023-03-06T01:29:02.605Z,23.00
2023-03-06T01:31:33.719Z,20.90
2023-03-06T01:34:04.991Z,20.40
2023-03-06T01:36:35.566Z,28.70
2023-03-06T01:39:06.822Z,22.80
2023-03-06T01:41:38.022Z,25.40
2023-03-06T01:44:09.174Z,22.40
2023-03-06T01:46:42.556Z,20.90
2023-03-06T01:51:45.815Z,21.40
2023-03-06T01:54:19.217Z,22.20
2023-03-06T01:56:51.579Z,27.70
2023-03-06T01:59:23.185Z,20.80
2023-03-06T02:01:54.924Z,22.20
2023-03-06T02:04:26.244Z,25.30
2023-03-06T02:06:57.544Z,20.70
2023-03-06T02:09:31.250Z,24.00
2023-03-06T02:14:31.411Z,24.20
2023-03-06T02:17:02.228Z,25.90
2023-03-06T02:19:42.990Z,27.60
2023-03-06T02:22:15.089Z,26.20
2023-03-06T02:24:49.128Z,24.30
2023-03-06T02:27:20.398Z,22.10
2023-03-06T02:29:51.409Z,22.90
2023-03-06T02:32:22.624Z,25.80
2023-03-06T02:34:58.205Z,23.60
2023-03-06T02:37:29.837Z,26.00
2023-03-06T02:40:05.025Z,26.80
2023-03-06T02:42:35.760Z,26.50
2023-03-06T02:45:10.697Z,29.50
2023-03-06T02:47:41.521Z,27.30
2023-03-06T02:50:13.072Z,32.70
2023-03-06T02:52:43.872Z,24.60
2023-03-06T02:55:15.060Z,27.80
2023-03-06T02:57:45.647Z,25.80
2023-03-06T03:00:17.948Z,27.30
2023-03-06T03:02:49.721Z,27.10
2023-03-06T03:05:20.719Z,27.30
2023-03-06T03:07:55.474Z,27.50
2023-03-06T03:10:27.850Z,26.50
2023-03-06T03:12:59.049Z,31.50
2023-03-06T03:15:30.239Z,26.90
2023-03-06T03:18:01.633Z,30.40
2023-03-06T03:20:32.925Z,31.00
2023-03-06T03:23:04.177Z,29.00
2023-03-06T03:25:35.068Z,31.80
2023-03-06T03:28:06.165Z,31.40
2023-03-06T03:30:37.311Z,31.80
2023-03-06T03:33:07.922Z,34.60
2023-03-06T03:35:39.759Z,32.40
2023-03-06T03:38:10.722Z,32.50
2023-03-06T03:40:41.969Z,33.50
2023-03-06T03:43:12.687Z,33.70
2023-03-06T03:45:44.356Z,30.60
2023-03-06T03:48:15.336Z,32.50
2023-03-06T03:50:46.848Z,31.60
2023-03-06T03:53:17.833Z,30.50
2023-03-06T03:55:49.948Z,31.90
2023-03-06T03:58:21.556Z,35.00
2023-03-06T04:00:53.057Z,32.80
2023-03-06T04:03:24.132Z,34.70
2023-03-06T04:05:58.220Z,30.70
2023-03-06T04:08:29.451Z,34.10
2023-03-06T04:11:00.914Z,37.20
2023-03-06T04:13:32.932Z,38.10
2023-03-06T04:16:03.968Z,32.50
2023-03-06T04:18:35.971Z,37.80
2023-03-06T04:21:08.655Z,32.40
2023-03-06T04:23:41.154Z,32.10
2023-03-06T04:26:12.074Z,34.20
2023-03-06T04:28:42.648Z,38.90
2023-03-06T04:31:14.316Z,34.70
2023-03-06T04:33:44.883Z,37.00
2023-03-06T04:36:22.994Z,36.20
2023-03-06T04:38:54.110Z,32.60
2023-03-06T04:41:25.790Z,38.10
2023-03-06T04:43:56.813Z,35.70
2023-03-06T04:46:27.961Z,37.30
2023-03-06T04:48:59.003Z,39.20
2023-03-06T04:51:29.906Z,37.70
2023-03-06T04:54:00.477Z,40.60
2023-03-06T04:56:31.464Z,43.10
2023-03-06T04:59:01.943Z,36.50
2023-03-06T05:01:33.080Z,35.40
2023-03-06T05:04:03.878Z,37.40
2023-03-06T05:06:35.266Z,34.50
2023-03-06T05:09:05.889Z,42.80
2023-03-06T05:11:37.227Z,38.20
2023-03-06T05:14:08.069Z,37.50
2023-03-06T05:16:39.256Z,38.50
2023-03-06T05:19:10.164Z,38.40
2023-03-06T05:21:41.506Z,40.50
2023-03-06T05:24:12.683Z,40.50
2023-03-06T05:26:43.944Z,37.00
2023-03-06T05:29:14.625Z,35.00
2023-03-06T05:31:45.456Z,36.70
2023-03-06T05:34:16.600Z,37.20
2023-03-06T05:36:48.043Z,40.90
2023-03-06T05:39:18.682Z,37.00
2023-03-06T05:41:49.525Z,36.00
2023-03-06T05:44:20.042Z,38.80
2023-03-06T05:46:51.830Z,35.70
2023-03-06T05:49:22.370Z,33.60
2023-03-06T05:51:54.197Z,38.30
2023-03-06T05:54:26.572Z,39.40
2023-03-06T05:56:57.632Z,36.00
2023-03-06T05:59:29.220Z,34.30
2023-03-06T06:02:02.035Z,28.70
2023-03-06T06:04:36.655Z,35.00
2023-03-06T06:07:08.111Z,40.70
2023-03-06T06:09:38.944Z,31.20
2023-03-06T06:12:10.945Z,31.40
2023-03-06T06:14:41.647Z,32.30
2023-03-06T06:17:13.249Z,35.50
2023-03-06T06:19:44.272Z,30.80
2023-03-06T06:22:15.274Z,30.30
2023-03-06T06:24:45.897Z,31.30
2023-03-06T06:27:16.806Z,31.30
2023-03-06T06:29:47.549Z,31.20
2023-03-06T06:32:18.763Z,28.00
2023-03-06T06:34:49.492Z,28.50
2023-03-06T06:37:20.741Z,29.00
2023-03-06T06:39:51.336Z,31.00
2023-03-06T06:42:31.980Z,30.30
2023-03-06T06:45:06.548Z,29.70
2023-03-06T06:47:41.491Z,27.50
2023-03-06T06:50:14.760Z,30.30
2023-03-06T06:52:45.801Z,28.50
2023-03-06T06:55:16.545Z,29.10
2023-03-06T06:57:47.460Z,30.20
2023-03-06T07:00:19.069Z,29.60
2023-03-06T07:02:51.498Z,27.00
2023-03-06T07:05:22.293Z,29.20
2023-03-06T07:07:53.091Z,25.20
2023-03-06T07:10:24.491Z,29.60
2023-03-06T07:12:56.884Z,26.60
2023-03-06T07:15:30.118Z,28.60
2023-03-06T07:18:01.727Z,30.50
2023-03-06T07:20:32.447Z,26.90
2023-03-06T07:23:05.048Z,26.00
2023-03-06T07:25:35.864Z,24.40
2023-03-06T07:28:07.021Z,25.80
2023-03-06T07:30:37.845Z,27.00
2023-03-06T07:33:08.776Z,29.80
2023-03-06T07:35:39.768Z,25.30
2023-03-06T07:38:10.992Z,27.70
2023-03-06T07:40:42.005Z,29.70
2023-03-06T07:43:19.481Z,35.10
2023-03-06T07:46:00.028Z,31.90
2023-03-06T07:48:31.014Z,25.00
2023-03-06T07:51:02.394Z,30.40
2023-03-06T07:53:33.696Z,33.00
2023-03-06T07:56:08.780Z,29.60
2023-03-06T07:58:40.947Z,25.30
2023-03-06T08:01:13.167Z,31.70
2023-03-06T08:03:44.995Z,27.80
2023-03-06T08:06:17.001Z,28.50
2023-03-06T08:08:48.763Z,25.80
2023-03-06T08:11:20.767Z,27.50
2023-03-06T08:13:52.973Z,30.50
2023-03-06T08:16:25.328Z,27.40
2023-03-06T08:18:56.364Z,27.20
2023-03-06T08:21:27.852Z,27.60
2023-03-06T08:23:59.289Z,26.00
2023-03-06T08:26:31.498Z,25.60
2023-03-06T08:29:03.714Z,23.60
2023-03-06T08:31:35.209Z,25.30
2023-03-06T08:34:07.597Z,25.80
2023-03-06T08:36:38.476Z,28.90
2023-03-06T08:39:10.188Z,26.20
2023-03-06T08:41:42.438Z,23.70
2023-03-06T08:44:13.649Z,24.40
2023-03-06T08:46:44.430Z,24.70
2023-03-06T08:49:15.672Z,24.40
2023-03-06T08:51:46.253Z,25.70
2023-03-06T08:54:17.466Z,25.50
2023-03-06T08:56:48.122Z,22.80
2023-03-06T08:59:19.106Z,24.60
2023-03-06T09:01:49.699Z,26.90
2023-03-06T09:04:20.869Z,23.70
2023-03-06T09:06:54.514Z,18.80
2023-03-06T09:09:26.801Z,20.00
2023-03-06T09:11:57.481Z,19.20
2023-03-06T09:14:28.575Z,18.00
2023-03-06T09:16:59.615Z,18.10
2023-03-06T09:19:30.869Z,18.90
2023-03-06T09:22:02.011Z,16.20
2023-03-06T09:24:33.262Z,14.20
2023-03-06T09:27:04.298Z,15.40
2023-03-06T09:29:35.346Z,14.10
2023-03-06T09:32:06.819Z,13.80
2023-03-06T09:34:37.955Z,14.40
2023-03-06T09:37:09.125Z,14.20
2023-03-06T09:39:40.011Z,15.40
2023-03-06T09:42:15.573Z,14.30
2023-03-06T09:44:48.317Z,14.20
2023-03-06T09:47:29.421Z,11.60
2023-03-06T09:50:10.262Z,14.30
2023-03-06T09:52:46.213Z,14.60
2023-03-06T09:55:19.575Z,11.90
2023-03-06T09:57:54.939Z,14.20
2023-03-06T10:00:32.393Z,14.20
2023-03-06T10:03:09.517Z,11.60
2023-03-06T10:05:42.838Z,12.60
2023-03-06T10:08:20.952Z,12.40
2023-03-06T10:10:55.878Z,13.60
2023-03-06T10:13:29.526Z,12.40
2023-03-06T10:16:03.982Z,9.80
2023-03-06T10:18:38.677Z,8.20
2023-03-06T10:21:19.566Z,8.00
2023-03-06T10:23:53.212Z,9.80
2023-03-06T10:26:26.476Z,8.60
2023-03-06T10:29:03.166Z,8.10
2023-03-06T10:31:34.679Z,6.60
2023-03-06T10:34:13.716Z,6.80
2023-03-06T10:36:44.780Z,7.00
2023-03-06T10:39:18.329Z,7.00
2023-03-06T10:41:49.999Z,6.20
2023-03-06T10:44:24.411Z,8.20
2023-03-06T10:46:56.605Z,6.50
2023-03-06T10:49:30.198Z,6.90
2023-03-06T10:52:02.514Z,7.50
2023-03-06T10:54:34.976Z,7.00
2023-03-06T10:57:22.952Z,5.60
2023-03-06T10:59:55.170Z,7.30
2023-03-06T11:02:30.315Z,7.60
2023-03-06T11:05:02.188Z,7.50
2023-03-06T11:07:34.039Z,8.80
2023-03-06T11:10:14.098Z,7.70
2023-03-06T11:12:45.621Z,6.60
2023-03-06T11:15:23.192Z,8.20
2023-03-06T11:17:56.009Z,7.50
2023-03-06T11:20:33.590Z,8.00
2023-03-06T11:23:12.779Z,8.50
2023-03-06T11:25:48.668Z,8.40
2023-03-06T11:28:23.005Z,7.50
2023-03-06T11:30:55.453Z,9.50
2023-03-06T11:33:29.703Z,9.80
2023-03-06T11:36:05.048Z,8.80
2023-03-06T11:38:43.417Z,8.50
2023-03-06T11:41:19.627Z,9.80
2023-03-06T11:43:54.799Z,8.30
2023-03-06T11:46:28.623Z,9.40
2023-03-06T11:49:03.245Z,8.80
2023-03-06T11:51:36.050Z,10.70
2023-03-06T11:54:07.303Z,9.50
2023-03-06T11:56:40.849Z,9.30
2023-03-06T11:59:20.029Z,10.30
2023-03-06T12:01:54.963Z,10.80
2023-03-06T12:04:35.572Z,9.00
2023-03-06T12:07:12.705Z,9.30
2023-03-06T12:09:47.300Z,9.50
2023-03-06T12:15:10.511Z,11.00
2023-03-06T12:17:51.800Z,9.90
2023-03-06T12:20:28.771Z,15.60
2023-03-06T12:23:14.849Z,10.40
2023-03-06T12:25:49.494Z,10.50
2023-03-06T12:31:23.986Z,10.20
2023-03-06T12:34:02.964Z,12.50
2023-03-06T12:36:40.064Z,10.20
2023-03-06T12:39:18.037Z,9.30
2023-03-06T12:41:58.060Z,10.40
2023-03-06T12:44:43.892Z,9.80
2023-03-06T12:47:17.177Z,11.00
2023-03-06T12:49:51.961Z,9.50
2023-03-06T12:52:30.188Z,9.70
2023-03-06T12:55:02.449Z,8.60
2023-03-06T12:57:33.618Z,8.90
2023-03-06T13:00:04.975Z,9.40
2023-03-06T13:02:52.263Z,9.20
2023-03-06T13:05:31.017Z,10.90
2023-03-06T13:08:18.850Z,11.80
2023-03-06T13:11:05.420Z,10.00
2023-03-06T13:13:42.950Z,11.70
2023-03-06T13:16:15.609Z,10.50
2023-03-06T13:21:29.491Z,9.70
2023-03-06T13:24:05.679Z,9.10
2023-03-06T13:27:05.972Z,11.20
2023-03-06T13:30:02.515Z,9.60
2023-03-06T13:32:34.860Z,8.70
2023-03-06T13:35:19.231Z,10.40
2023-03-06T13:37:54.059Z,9.10
2023-03-06T13:40:30.504Z,10.30
2023-03-06T13:43:18.662Z,9.30
2023-03-06T13:45:50.858Z,6.50
2023-03-06T13:48:45.966Z,9.40
2023-03-06T13:51:23.334Z,8.80
2023-03-06T13:54:11.090Z,13.60
2023-03-06T13:56:54.195Z,10.30
2023-03-06T13:59:36.623Z,8.60
2023-03-06T14:02:18.895Z,11.50
2023-03-06T14:04:56.234Z,9.10
2023-03-06T14:07:28.522Z,13.10
2023-03-06T14:10:02.573Z,9.80
2023-03-06T14:12:35.250Z,12.70
2023-03-06T14:15:13.865Z,7.90
2023-03-06T14:17:55.931Z,8.60
2023-03-06T14:20:33.357Z,8.00
2023-03-06T14:23:17.840Z,7.40
2023-03-06T14:25:50.243Z,9.60
2023-03-06T14:28:27.813Z,9.90
2023-03-06T14:31:00.362Z,8.30
2023-03-06T14:33:38.141Z,9.20
2023-03-06T14:36:14.409Z,8.90
2023-03-06T14:38:50.001Z,13.00
2023-03-06T14:41:28.663Z,8.40
2023-03-06T14:44:10.501Z,9.50
2023-03-06T14:46:41.456Z,8.60
2023-03-06T14:49:13.476Z,11.10
2023-03-06T14:51:45.740Z,8.70
2023-03-06T14:54:19.550Z,7.50
2023-03-06T14:56:53.401Z,7.80
2023-03-06T14:59:27.045Z,9.60
2023-03-06T15:02:02.560Z,8.30
2023-03-06T15:04:36.779Z,8.80
2023-03-06T15:07:09.299Z,9.10
2023-03-06T15:09:40.949Z,8.80
2023-03-06T15:12:26.484Z,11.50
2023-03-06T15:14:59.865Z,9.00
2023-03-06T15:17:31.424Z,7.80
2023-03-06T15:20:02.606Z,8.20
2023-03-06T15:22:38.266Z,9.20
2023-03-06T15:25:17.694Z,13.40
2023-03-06T15:27:51.113Z,11.10
2023-03-06T15:30:27.159Z,14.30
2023-03-06T15:33:23.950Z,10.30
2023-03-06T15:35:57.545Z,11.50
2023-03-06T15:40:58.990Z,10.60
2023-03-06T15:43:30.404Z,8.90
2023-03-06T15:46:01.996Z,8.60
2023-03-06T15:48:34.050Z,9.60
2023-03-06T15:51:05.298Z,9.40
2023-03-06T15:53:36.001Z,8.20
2023-03-06T15:56:07.721Z,9.20
2023-03-06T15:58:38.405Z,8.90
2023-03-06T16:01:12.976Z,9.30
2023-03-06T16:03:43.952Z,9.30
2023-03-06T16:06:19.094Z,12.60
2023-03-06T16:08:51.015Z,9.30
2023-03-06T16:11:32.507Z,10.00
2023-03-06T16:14:06.545Z,11.10
2023-03-06T16:16:39.984Z,8.20
2023-03-06T16:19:25.281Z,11.90
2023-03-06T16:21:59.476Z,11.50
2023-03-06T16:24:30.231Z,9.10
2023-03-06T16:27:02.164Z,8.50
2023-03-06T16:29:32.855Z,11.90
2023-03-06T16:32:04.644Z,9.10
2023-03-06T16:34:35.258Z,12.80
2023-03-06T16:37:07.611Z,10.10
2023-03-06T16:39:38.452Z,8.80
2023-03-06T16:42:09.790Z,9.70
2023-03-06T16:44:40.324Z,9.60
2023-03-06T16:47:12.422Z,15.20
2023-03-06T16:49:42.885Z,12.80
2023-03-06T16:52:14.852Z,12.90
2023-03-06T16:54:45.427Z,9.70
2023-03-06T16:57:16.614Z,13.80
2023-03-06T16:59:47.289Z,9.30
2023-03-06T17:02:18.561Z,10.30
2023-03-06T17:04:49.372Z,14.20
2023-03-06T17:07:20.307Z,13.70
2023-03-06T17:09:51.225Z,14.40
2023-03-06T17:12:22.289Z,11.90
2023-03-06T17:14:52.984Z,13.80
2023-03-06T17:17:24.274Z,13.00
2023-03-06T17:19:56.872Z,12.70
2023-03-06T17:22:28.801Z,13.10
2023-03-06T17:25:02.721Z,12.80
2023-03-06T17:27:34.873Z,17.00
2023-03-06T17:30:06.600Z,16.20
2023-03-06T17:32:38.433Z,13.80
2023-03-06T17:35:09.746Z,14.90
2023-03-06T17:37:41.234Z,14.40
2023-03-06T17:40:15.720Z,13.10
2023-03-06T17:42:46.702Z,18.20
2023-03-06T17:45:17.503Z,12.40
2023-03-06T17:47:49.223Z,14.60
2023-03-06T17:50:20.381Z,15.00
2023-03-06T17:52:51.701Z,14.30
2023-03-06T17:55:22.675Z,12.40
2023-03-06T17:57:54.892Z,13.10
2023-03-06T18:00:26.600Z,16.30
2023-03-06T18:02:58.005Z,15.20
2023-03-06T18:05:28.781Z,16.30
2023-03-06T18:07:59.846Z,21.00
2023-03-06T18:10:30.857Z,16.90
2023-03-06T18:13:03.131Z,17.40
2023-03-06T18:15:34.992Z,15.20
2023-03-06T18:18:07.966Z,16.20
2023-03-06T18:20:44.285Z,19.10
2023-03-06T18:23:16.906Z,16.70
2023-03-06T18:25:48.095Z,15.50
2023-03-06T18:28:19.910Z,14.10
2023-03-06T18:30:50.804Z,16.40
2023-03-06T18:33:22.102Z,18.00
2023-03-06T18:35:52.917Z,17.50
2023-03-06T18:38:24.283Z,17.30
2023-03-06T18:40:55.050Z,16.10
2023-03-06T18:43:26.209Z,18.60
2023-03-06T18:45:57.890Z,18.70
2023-03-06T18:48:29.266Z,18.60
2023-03-06T18:51:04.338Z,22.50
2023-03-06T18:53:35.541Z,18.70
2023-03-06T18:56:06.624Z,18.70
2023-03-06T18:58:38.127Z,18.00
2023-03-06T19:01:09.150Z,20.90
2023-03-06T19:03:41.133Z,19.90
2023-03-06T19:06:13.220Z,22.90
2023-03-06T19:08:44.577Z,20.30
2023-03-06T19:11:15.898Z,26.20
2023-03-06T19:13:47.177Z,22.20
2023-03-06T19:16:22.398Z,22.30
2023-03-06T19:18:55.804Z,23.00
2023-03-06T19:21:27.786Z,21.80
2023-03-06T19:23:59.680Z,23.80
2023-03-06T19:26:30.541Z,24.50
2023-03-06T19:29:01.657Z,24.40
2023-03-06T19:31:32.653Z,21.90
2023-03-06T19:34:03.937Z,22.00
2023-03-06T19:36:35.065Z,26.70
2023-03-06T19:39:07.845Z,27.00
2023-03-06T19:41:38.787Z,26.20
2023-03-06T19:44:12.372Z,27.40
2023-03-06T19:46:44.880Z,27.50
2023-03-06T19:49:18.322Z,27.80
2023-03-06T19:51:49.177Z,26.00
2023-03-06T19:54:24.001Z,27.50
2023-03-06T19:56:56.355Z,31.90
2023-03-06T19:59:28.395Z,30.80
2023-03-06T20:02:03.310Z,31.50
2023-03-06T20:04:35.220Z,37.70
2023-03-06T20:07:06.367Z,31.70
2023-03-06T20:09:37.890Z,36.30
2023-03-06T20:12:08.933Z,32.50
2023-03-06T20:14:40.125Z,32.20
2023-03-06T20:17:10.800Z,31.90
2023-03-06T20:19:42.254Z,33.60
2023-03-06T20:22:12.975Z,32.90
2023-03-06T20:24:43.927Z,31.70
2023-03-06T20:27:14.648Z,31.00
2023-03-06T20:29:45.917Z,33.10
2023-03-06T20:32:16.661Z,33.20
2023-03-06T20:34:47.799Z,37.90
2023-03-06T20:37:18.521Z,39.60
2023-03-06T20:39:49.743Z,36.90
2023-03-06T20:42:20.379Z,38.40
2023-03-06T20:44:51.644Z,36.30
2023-03-06T20:47:22.564Z,33.40
2023-03-06T20:49:53.601Z,32.70
2023-03-06T20:52:24.233Z,44.10
2023-03-06T20:54:56.817Z,37.70
2023-03-06T20:57:28.107Z,45.90
2023-03-06T20:59:59.820Z,37.60
2023-03-06T21:02:30.654Z,39.80
2023-03-06T21:05:01.875Z,40.00
2023-03-06T21:07:32.832Z,41.00
2023-03-06T21:10:04.049Z,36.60
2023-03-06T21:12:35.157Z,37.10
2023-03-06T21:15:08.893Z,39.10
2023-03-06T21:17:39.654Z,38.10
2023-03-06T21:20:11.732Z,43.40
2023-03-06T21:22:42.381Z,44.50
2023-03-06T21:25:13.810Z,42.00
2023-03-06T21:27:44.749Z,43.90
2023-03-06T21:30:16.195Z,37.90
2023-03-06T21:32:47.712Z,42.90
2023-03-06T21:35:19.077Z,44.80
2023-03-06T21:37:51.177Z,45.80
2023-03-06T21:40:22.863Z,39.70
2023-03-06T21:42:53.853Z,37.80
2023-03-06T21:45:30.757Z,45.90
2023-03-06T21:48:02.145Z,41.30
2023-03-06T21:50:35.365Z,45.80
2023-03-06T21:53:06.213Z,45.20
2023-03-06T21:55:39.182Z,47.70
2023-03-06T21:58:10.441Z,42.80
2023-03-06T22:00:41.880Z,39.50
2023-03-06T22:03:12.618Z,43.50
2023-03-06T22:05:43.843Z,51.90
2023-03-06T22:08:14.711Z,45.90
2023-03-06T22:10:48.452Z,50.20
2023-03-06T22:13:19.758Z,44.60
2023-03-06T22:15:55.736Z,46.60
2023-03-06T22:18:26.961Z,47.50
2023-03-06T22:20:58.299Z,50.80
2023-03-06T22:23:30.118Z,44.40
2023-03-06T22:26:05.729Z,47.20
2023-03-06T22:28:38.695Z,55.00
2023-03-06T22:31:11.246Z,49.90
2023-03-06T22:33:42.340Z,50.80
2023-03-06T22:36:15.909Z,53.40
2023-03-06T22:38:47.452Z,51.20
2023-03-06T22:41:20.202Z,59.40
2023-03-06T22:43:50.935Z,61.10
2023-03-06T22:46:23.486Z,57.50
2023-03-06T22:48:57.051Z,56.30
2023-03-06T22:51:28.752Z,53.90
2023-03-06T22:53:59.474Z,59.60
2023-03-06T22:56:30.569Z,63.60
2023-03-06T22:59:01.507Z,60.30
2023-03-06T23:01:34.029Z,58.70
2023-03-06T23:04:08.555Z,61.50
2023-03-06T23:06:41.075Z,60.30
2023-03-06T23:09:14.769Z,56.70
2023-03-06T23:12:04.428Z,58.50
2023-03-06T23:14:53.955Z,54.40
2023-03-06T23:17:43.726Z,63.10
2023-03-06T23:20:33.646Z,58.30
2023-03-06T23:23:23.899Z,65.90
2023-03-06T23:25:59.345Z,58.80
2023-03-06T23:28:30.815Z,65.80
2023-03-06T23:31:01.548Z,65.50
2023-03-06T23:33:32.667Z,61.50
2023-03-06T23:36:04.680Z,71.80
2023-03-06T23:38:35.939Z,64.20
2023-03-06T23:41:08.142Z,71.10
2023-03-06T23:43:39.335Z,62.40
2023-03-06T23:46:10.461Z,57.50
2023-03-06T23:48:42.696Z,67.10
2023-03-06T23:51:15.125Z,69.40
2023-03-06T23:53:46.676Z,70.00
2023-03-06T23:56:17.355Z,65.30
2023-03-06T23:58:48.723Z,72.80
